| time (UTC) | temp F | wind direction | speed knots | gust knots | rain 1hr in | rain 24hr in | rain mn in | humidity % | barometer mb |
| 20260506212028 | 88 | 200 | 2.6 | 3.5 | 0.00 | 0.00 | 0.00 | 53 | 1014.8 |
| 20260506211027 | 89 | 6 | 2.6 | 5.2 | 0.00 | 0.00 | 0.00 | 48 | 1014.9 |
| 20260506210026 | 89 | 228 | 3.5 | 5.2 | 0.00 | 0.00 | 0.00 | 46 | 1015.0 |
| 20260506205026 | 90 | 230 | 3.5 | 7.0 | 0.00 | 0.00 | 0.00 | 46 | 1015.0 |
| 20260506204019 | 90 | 134 | 2.6 | 4.3 | 0.00 | 0.00 | 0.00 | 46 | 1015.0 |
| 20260506203017 | 90 | 209 | 2.6 | 4.3 | 0.00 | 0.00 | 0.00 | 47 | 1015.3 |
| 20260506202023 | 90 | 221 | 3.5 | 6.1 | 0.00 | 0.00 | 0.00 | 46 | 1015.5 |
| 20260506201017 | 90 | 245 | 2.6 | 5.2 | 0.00 | 0.00 | 0.00 | 45 | 1015.5 |
| 20260506200018 | 90 | 258 | 2.6 | 6.1 | 0.00 | 0.00 | 0.00 | 45 | 1015.6 |
| 20260506195031 | 90 | 199 | 2.6 | 5.2 | 0.00 | 0.00 | 0.00 | 46 | 1015.6 |
| 20260506194031 | 91 | 280 | 5.2 | 9.6 | 0.00 | 0.00 | 0.00 | 44 | 1015.8 |
| 20260506193026 | 91 | 276 | 3.5 | 7.0 | 0.00 | 0.00 | 0.00 | 44 | 1016.1 |
| 20260506192026 | 90 | 187 | 2.6 | 4.3 | 0.00 | 0.00 | 0.00 | 46 | 1016.3 |
| 20260506191027 | 89 | 265 | 2.6 | 4.3 | 0.00 | 0.00 | 0.00 | 46 | 1016.5 |
| 20260506190026 | 89 | 285 | 3.5 | 5.2 | 0.00 | 0.00 | 0.00 | 45 | 1016.7 |
| 20260506185025 | 90 | 262 | 5.2 | 8.7 | 0.00 | 0.00 | 0.00 | 44 | 1016.8 |
| 20260506184024 | 87 | 79 | 3.5 | 5.2 | 0.00 | 0.00 | 0.00 | 49 | 1016.9 |
| 20260506183019 | 87 | 245 | 2.6 | 4.3 | 0.00 | 0.00 | 0.00 | 50 | 1017.2 |
| 20260506182018 | 87 | 326 | 4.3 | 7.8 | 0.00 | 0.00 | 0.00 | 49 | 1017.4 |
| 20260506181030 | 88 | 221 | 3.5 | 4.3 | 0.00 | 0.00 | 0.00 | 49 | 1017.8 |
| 20260506180023 | 85 | 235 | 3.5 | 5.2 | 0.00 | 0.00 | 0.00 | 53 | 1017.9 |
| 20260506175023 | 86 | 278 | 4.3 | 9.6 | 0.00 | 0.00 | 0.00 | 51 | 1017.9 |
| 20260506174023 | 85 | 209 | 2.6 | 5.2 | 0.00 | 0.00 | 0.00 | 55 | 1017.8 |
| 20260506173031 | 84 | 166 | 2.6 | 4.3 | 0.00 | 0.00 | 0.00 | 56 | 1018.2 |
| 20260506172031 | 85 | 239 | 3.5 | 7.8 | 0.00 | 0.00 | 0.00 | 54 | 1018.2 |
| 20260506171019 | 83 | 243 | 2.6 | 4.3 | 0.00 | 0.00 | 0.00 | 56 | 1018.4 |
| 20260506170026 | 81 | 264 | 2.6 | 7.8 | 0.00 | 0.00 | 0.00 | 60 | 1018.5 |
| 20260506165019 | 82 | 237 | 2.6 | 7.0 | 0.00 | 0.00 | 0.00 | 59 | 1018.5 |
| 20260506164019 | 83 | 195 | 2.6 | 3.5 | 0.00 | 0.00 | 0.00 | 58 | 1018.4 |
| 20260506163031 | 85 | 274 | 4.3 | 6.1 | 0.00 | 0.00 | 0.00 | 51 | 1018.5 |
| 20260506162025 | 84 | 239 | 4.3 | 10.4 | 0.00 | 0.00 | 0.00 | 55 | 1018.5 |
| 20260506161020 | 83 | 215 | 2.6 | 5.2 | 0.00 | 0.00 | 0.00 | 57 | 1018.6 |
| 20260506160033 | 82 | 113 | 1.7 | 3.5 | 0.00 | 0.00 | 0.00 | 59 | 1018.6 |
| 20260506155028 | 82 | 255 | 2.6 | 5.2 | 0.00 | 0.00 | 0.00 | 59 | 1018.7 |
| 20260506154022 | 82 | 188 | 2.6 | 4.3 | 0.00 | 0.00 | 0.00 | 58 | 1018.7 |
| 20260506153021 | 80 | 216 | 2.6 | 6.1 | 0.00 | 0.00 | 0.00 | 60 | 1018.8 |
| 20260506152027 | 79 | 241 | 2.6 | 3.5 | 0.00 | 0.00 | 0.00 | 63 | 1019.0 |
| 20260506151022 | 79 | 231 | 1.7 | 3.5 | 0.00 | 0.00 | 0.00 | 62 | 1018.9 |
| 20260506150016 | 81 | 269 | 3.5 | 8.7 | 0.00 | 0.00 | 0.00 | 58 | 1018.8 |
| 20260506145017 | 80 | 227 | 2.6 | 4.3 | 0.00 | 0.00 | 0.00 | 60 | 1018.8 |
| 20260506144030 | 81 | 292 | 2.6 | 4.3 | 0.00 | 0.00 | 0.00 | 59 | 1018.5 |
| 20260506143026 | 80 | 219 | 2.6 | 3.5 | 0.00 | 0.00 | 0.00 | 62 | 1018.4 |
| 20260506142021 | 78 | 243 | 2.6 | 4.3 | 0.00 | 0.00 | 0.00 | 65 | 1018.5 |
| 20260506141015 | 79 | 228 | 2.6 | 4.3 | 0.00 | 0.00 | 0.00 | 64 | 1018.5 |
| 20260506140029 | 81 | 215 | 3.5 | 5.2 | 0.00 | 0.00 | 0.00 | 62 | 1018.5 |
| 20260506135024 | 80 | 212 | 2.6 | 3.5 | 0.00 | 0.00 | 0.00 | 66 | 1018.5 |
| 20260506134021 | 78 | 176 | 1.7 | 3.5 | 0.00 | 0.00 | 0.00 | 70 | 1018.6 |
| 20260506133027 | 78 | 219 | 1.7 | 4.3 | 0.00 | 0.00 | 0.00 | 70 | 1018.4 |
| 20260506132021 | 79 | 241 | 1.7 | 4.3 | 0.00 | 0.00 | 0.00 | 69 | 1018.3 |
| 20260506131021 | 78 | 276 | 2.6 | 5.2 | 0.00 | 0.00 | 0.00 | 70 | 1018.2 |
| 20260506130033 | 76 | 189 | 0.9 | 4.3 | 0.00 | 0.00 | 0.00 | 74 | 1018.2 |
| 20260506125033 | 75 | 201 | 0.9 | 4.3 | 0.00 | 0.00 | 0.00 | 77 | 1018.2 |
| 20260506124033 | 73 | 197 | 1.7 | 2.6 | 0.00 | 0.00 | 0.00 | 80 | 1018.0 |
| 20260506123016 | 72 | 225 | 1.7 | 4.3 | 0.00 | 0.00 | 0.00 | 83 | 1017.9 |
| 20260506122029 | 70 | 166 | 1.7 | 3.5 | 0.00 | 0.00 | 0.00 | 85 | 1017.9 |
| 20260506121029 | 68 | 177 | 0.9 | 1.7 | 0.00 | 0.00 | 0.00 | 89 | 1017.9 |
| 20260506120027 | 66 | 128 | 2.6 | 4.3 | 0.00 | 0.00 | 0.00 | 91 | 1017.8 |
| 20260506115026 | 64 | 113 | 0.9 | 2.6 | 0.00 | 0.00 | 0.00 | 96 | 1017.8 |
| 20260506114020 | 61 | 90 | 0.0 | 1.7 | 0.00 | 0.00 | 0.00 | 99 | 1017.7 |
| 20260506113015 | 58 | 112 | 0.9 | 1.7 | 0.00 | 0.00 | 0.00 | 99 | 1017.6 |
| 20260506112029 | 56 | 0.0 | 0.0 | 0.00 | 0.00 | 0.00 | 99 | 1017.5 | |
| 20260506111019 | 55 | 0.0 | 0.0 | 0.00 | 0.00 | 0.00 | 99 | 1017.4 | |
| 20260506110018 | 54 | 0.0 | 0.0 | 0.00 | 0.00 | 0.00 | 99 | 1017.4 | |
| 20260506105030 | 54 | 0.0 | 0.0 | 0.00 | 0.00 | 0.00 | 99 | 1017.5 | |
| 20260506104025 | 54 | 0.0 | 0.0 | 0.00 | 0.00 | 0.00 | 99 | 1017.5 | |
| 20260506103026 | 54 | 0.0 | 0.0 | 0.00 | 0.00 | 0.00 | 99 | 1017.5 | |
| 20260506102020 | 54 | 0.0 | 0.0 | 0.00 | 0.00 | 0.00 | 99 | 1017.4 | |
| 20260506101020 | 54 | 0.0 | 0.0 | 0.00 | 0.00 | 0.00 | 99 | 1017.4 | |
| 20260506100025 | 54 | 0.0 | 0.0 | 0.00 | 0.00 | 0.00 | 99 | 1017.3 | |
| 20260506095019 | 54 | 0.0 | 0.0 | 0.00 | 0.00 | 0.00 | 99 | 1017.3 | |
| 20260506094019 | 54 | 0.0 | 0.0 | 0.00 | 0.00 | 0.00 | 99 | 1017.3 | |
| 20260506093032 | 54 | 0.0 | 0.0 | 0.00 | 0.00 | 0.00 | 99 | 1017.3 | |
| 20260506092026 | 54 | 0.0 | 0.0 | 0.00 | 0.00 | 0.00 | 99 | 1017.4 | |
| 20260506091020 | 54 | 0.0 | 0.0 | 0.00 | 0.00 | 0.00 | 99 | 1017.5 | |
| 20260506090033 | 54 | 0.0 | 0.0 | 0.00 | 0.00 | 0.00 | 99 | 1017.5 | |
| 20260506085032 | 55 | 0.0 | 0.0 | 0.00 | 0.00 | 0.00 | 99 | 1017.4 | |
| 20260506084031 | 55 | 0.0 | 0.0 | 0.00 | 0.00 | 0.00 | 99 | 1017.5 | |
| 20260506083026 | 55 | 0.0 | 0.0 | 0.00 | 0.00 | 0.00 | 99 | 1017.8 | |
| 20260506082026 | 55 | 0.0 | 0.0 | 0.00 | 0.00 | 0.00 | 99 | 1017.7 | |
| 20260506081021 | 55 | 0.0 | 0.0 | 0.00 | 0.00 | 0.00 | 99 | 1017.6 | |
| 20260506073018 | 55 | 0.0 | 0.0 | 0.00 | 0.00 | 0.00 | 99 | 1017.2 | |
| 20260506072018 | 55 | 0.0 | 0.0 | 0.00 | 0.00 | 0.00 | 99 | 1017.3 | |
| 20260506071031 | 55 | 0.0 | 0.0 | 0.00 | 0.00 | 0.00 | 99 | 1017.4 | |
| 20260506062018 | 55 | 0.0 | 0.0 | 0.00 | 0.00 | 0.00 | 99 | 1018.0 | |
| 20260506061019 | 55 | 0.0 | 0.0 | 0.00 | 0.00 | 0.00 | 99 | 1017.8 | |
| 20260506051027 | 56 | 0.0 | 0.0 | 0.00 | 0.00 | 0.00 | 98 | 1018.2 | |
| 20260506045026 | 57 | 0.0 | 0.0 | 0.00 | 0.00 | 0.00 | 98 | 1018.3 | |
| 20260506044020 | 57 | 0.0 | 0.0 | 0.00 | 0.00 | 0.00 | 98 | 1018.3 | |
| 20260506043032 | 57 | 0.0 | 0.0 | 0.00 | 0.00 | 0.00 | 99 | 1018.7 | |
| 20260506042027 | 57 | 0.0 | 0.0 | 0.00 | 0.00 | 0.00 | 98 | 1018.7 | |
| 20260506041021 | 57 | 0.0 | 0.0 | 0.00 | 0.00 | 0.00 | 98 | 1018.7 | |
| 20260506040032 | 57 | 0.0 | 0.0 | 0.00 | 0.00 | 0.00 | 97 | 1018.6 | |
| 20260506035031 | 58 | 0.0 | 0.0 | 0.00 | 0.00 | 0.00 | 97 | 1018.5 | |
| 20260506034025 | 58 | 0.0 | 0.0 | 0.00 | 0.00 | 0.00 | 97 | 1018.5 | |
| 20260506033020 | 58 | 0.0 | 0.0 | 0.00 | 0.00 | 0.00 | 96 | 1018.3 | |
| 20260506032020 | 58 | 0.0 | 0.0 | 0.00 | 0.00 | 0.00 | 96 | 1018.4 | |
| 20260506031026 | 58 | 0.0 | 0.0 | 0.00 | 0.00 | 0.00 | 96 | 1018.4 | |
| 20260506030020 | 58 | 0.0 | 0.0 | 0.00 | 0.00 | 0.00 | 95 | 1018.5 | |
| 20260506025026 | 59 | 0.0 | 0.0 | 0.00 | 0.00 | 0.00 | 92 | 1018.5 | |
| 20260506024020 | 59 | 0.0 | 0.0 | 0.00 | 0.00 | 0.00 | 92 | 1018.2 | |
| 20260506023021 | 60 | 0.0 | 0.0 | 0.00 | 0.00 | 0.00 | 91 | 1018.5 | |
| 20260506022032 | 60 | 0.0 | 0.0 | 0.00 | 0.00 | 0.00 | 91 | 1018.6 | |
| 20260506021027 | 60 | 0.0 | 0.0 | 0.00 | 0.00 | 0.00 | 90 | 1018.6 | |
| 20260506020022 | 61 | 0.0 | 0.0 | 0.00 | 0.00 | 0.00 | 88 | 1018.5 | |
| 20260506015016 | 62 | 0.0 | 0.0 | 0.00 | 0.00 | 0.00 | 86 | 1018.4 | |
| 20260506014018 | 62 | 0.0 | 0.0 | 0.00 | 0.00 | 0.00 | 85 | 1018.2 | |
| 20260506013016 | 63 | 0.0 | 0.0 | 0.00 | 0.00 | 0.00 | 83 | 1018.0 | |
| 20260506012022 | 63 | 135 | 0.0 | 1.7 | 0.00 | 0.00 | 0.00 | 82 | 1018.0 |
| 20260506011017 | 64 | 87 | 0.9 | 1.7 | 0.00 | 0.00 | 0.00 | 80 | 1018.0 |
| 20260506010018 | 65 | 88 | 1.7 | 2.6 | 0.00 | 0.00 | 0.00 | 79 | 1018.1 |
| 20260506005018 | 66 | 0.0 | 0.0 | 0.00 | 0.00 | 0.00 | 77 | 1018.2 | |
| 20260506004019 | 66 | 0.0 | 0.0 | 0.00 | 0.00 | 0.00 | 74 | 1017.8 | |
| 20260506003026 | 67 | 94 | 1.7 | 2.6 | 0.00 | 0.00 | 0.00 | 73 | 1017.9 |
| 20260506002025 | 68 | 91 | 1.7 | 2.6 | 0.00 | 0.00 | 0.00 | 71 | 1017.9 |
| 20260506001025 | 69 | 107 | 1.7 | 3.5 | 0.00 | 0.00 | 0.00 | 70 | 1017.9 |
| 20260506000020 | 70 | 223 | 0.9 | 3.5 | 0.00 | 0.00 | 0.00 | 68 | 1017.9 |
| 20260505235020 | 71 | 144 | 1.7 | 2.6 | 0.00 | 0.00 | 0.00 | 65 | 1017.9 |
| 20260505234026 | 72 | 268 | 0.9 | 1.7 | 0.00 | 0.00 | 0.00 | 62 | 1017.9 |
| 20260505233020 | 74 | 227 | 2.6 | 4.3 | 0.00 | 0.00 | 0.00 | 59 | 1017.5 |
| 20260505232021 | 77 | 325 | 2.6 | 5.2 | 0.00 | 0.00 | 0.00 | 55 | 1017.6 |
| 20260505231020 | 77 | 209 | 1.7 | 2.6 | 0.00 | 0.00 | 0.00 | 53 | 1017.5 |
| 20260505230020 | 78 | 215 | 2.6 | 5.2 | 0.00 | 0.00 | 0.00 | 53 | 1017.5 |
| 20260505225032 | 77 | 118 | 2.6 | 7.0 | 0.00 | 0.00 | 0.00 | 52 | 1017.6 |
| 20260505224027 | 79 | 102 | 2.6 | 4.3 | 0.00 | 0.00 | 0.00 | 51 | 1017.6 |
| 20260505223032 | 79 | 118 | 3.5 | 6.1 | 0.00 | 0.00 | 0.00 | 51 | 1017.5 |
| 20260505222028 | 80 | 120 | 2.6 | 4.3 | 0.00 | 0.00 | 0.00 | 49 | 1017.5 |
| 20260505221028 | 80 | 64 | 2.6 | 5.2 | 0.00 | 0.00 | 0.00 | 48 | 1017.7 |
| 20260505220029 | 79 | 72 | 3.5 | 6.1 | 0.00 | 0.00 | 0.00 | 48 | 1017.6 |
| 20260505215024 | 79 | 102 | 3.5 | 5.2 | 0.00 | 0.00 | 0.00 | 49 | 1017.5 |
| 20260505214018 | 80 | 110 | 3.5 | 5.2 | 0.00 | 0.00 | 0.00 | 48 | 1017.7 |
| 20260505213042 | 79 | 176 | 1.7 | 5.2 | 0.00 | 0.00 | 0.00 | 50 | 1017.6 |